Bulk Guatemala — 3EXC4 — position and weather

sailwx.info

Track history (hours):
 
Tides and Currents Weather Stations Pressure Air Temp Water Temp Dewpoint Dewpoint Depression Visibility Wind Speed Wind Dir Waves Ship Positions

Bulk Guatemala

Last reported at 2017-Sep-29 07:56 UTC. Time now 2017-Nov-18 12:31 UTC.
Position N 36°16' E 014°43'.
Warning: this ship's position is 50 days out of date.

Length 199 m; draft 11.8 m.

Type: Cargo ship. MMSI: 356777000.

Date/timePositionNaut miles runAvg speedWind from/ knotsBaromVisibWave heightAir tempDewpointWater temp
2017-Sep-29 07:56N 36°16' E 014°43'613.4
2017-Sep-29 07:30N 36°17' E 014°36'713.6
2017-Sep-29 07:00N 36°19' E 014°28'713.5
2017-Sep-29 06:30N 36°21' E 014°20'612.5
2017-Sep-29 06:01N 36°23' E 014°13'612.5
2017-Sep-29 05:31N 36°25' E 014°05'612.4
2017-Sep-29 05:00N 36°27' E 013°58'612.4
2017-Sep-29 04:30N 36°29' E 013°50'712.3
2017-Sep-29 03:57N 36°31' E 013°42'  
2017-Sep-25 23:57N 36°02' W 005°10'614.6
2017-Sep-25 23:30N 36°01' W 005°18'611.1
2017-Sep-25 23:00N 36°05' W 005°23'3 6.4
2017-Sep-25 22:30N 36°08' W 005°25'0 0.3
2017-Sep-25 21:35N 36°08' W 005°25'0 0.1
2017-Sep-25 21:29N 36°08' W 005°25'0 0.0
2017-Sep-25 20:47N 36°08' W 005°25'0 0.1
2017-Sep-25 20:29N 36°08' W 005°25'0 0.0
2017-Sep-25 19:47N 36°08' W 005°25'0 0.0
2017-Sep-25 19:26N 36°08' W 005°25'0 0.1
2017-Sep-25 18:59N 36°08' W 005°25'0 0.0
2017-Sep-25 18:29N 36°08' W 005°25'0 0.3
2017-Sep-25 17:59N 36°08' W 005°25'0 0.1
2017-Sep-25 16:44N 36°08' W 005°25'0 0.2
2017-Sep-25 16:29N 36°08' W 005°25'0 0.0
2017-Sep-25 16:00N 36°08' W 005°25'0 0.1
2017-Sep-25 15:30N 36°08' W 005°25'0 0.0
2017-Sep-25 13:30N 36°08' W 005°25'0 0.0
2017-Sep-25 12:59N 36°08' W 005°25'8 1.9
2017-Sep-25 08:35N 35°60' W 005°24'110.5
2017-Sep-25 08:30N 35°59' W 005°25'16713.2
2017-Sep-24 19:51N 35°54' W 008°51'512.5
2017-Sep-24 19:28N 35°54' W 008°57'612.5
2017-Sep-24 19:00N 35°54' W 009°04'612.3
2017-Sep-24 18:31N 35°54' W 009°11'612.2
2017-Sep-24 18:00N 35°53' W 009°19'612.2
2017-Sep-24 17:30N 35°53' W 009°27'712.5
2017-Sep-24 16:58N 35°53' W 009°35'612.7
2017-Sep-24 16:30N 35°53' W 009°42'612.5
2017-Sep-24 16:00N 35°53' W 009°50'612.3
2017-Sep-24 15:30N 35°54' W 009°57'612.2
2017-Sep-24 15:01N 35°55' W 010°05'612.5
2017-Sep-24 14:29N 35°57' W 010°12'612.6
2017-Sep-24 14:00N 35°59' W 010°20'712.8
2017-Sep-24 13:29N 36°00' W 010°27'712.8
2017-Sep-24 12:59N 36°02' W 010°35'612.8
2017-Sep-24 12:30N 36°04' W 010°42'612.9
2017-Sep-24 12:00N 36°06' W 010°50'612.9
2017-Sep-24 11:30N 36°08' W 010°57'713.0
2017-Sep-24 11:00N 36°11' W 011°05'613.0
2017-Sep-24 10:30N 36°13' W 011°13'612.9
2017-Sep-24 10:00N 36°15' W 011°20'713.0
2017-Sep-24 09:30N 36°17' W 011°28'713.3
2017-Sep-24 09:01N 36°19' W 011°36'713.1
2017-Sep-24 08:30N 36°21' W 011°43'612.8
2017-Sep-24 08:00N 36°23' W 011°51'612.6
2017-Sep-24 07:30N 36°25' W 011°58'612.7
2017-Sep-24 07:01N 36°27' W 012°06'713.3
2017-Sep-24 06:30N 36°29' W 012°14'713.2
2017-Sep-24 06:01N 36°31' W 012°21'713.1
2017-Sep-24 05:30N 36°33' W 012°29'713.4
2017-Sep-24 05:00N 36°35' W 012°37'713.2
2017-Sep-24 04:30N 36°37' W 012°45'813.3
2017-Sep-24 03:53N 36°40' W 012°55'513.2
2017-Sep-24 03:30N 36°41' W 013°01'713.1
2017-Sep-24 03:00N 36°43' W 013°08'713.0
2017-Sep-24 02:30N 36°45' W 013°16'613.0
2017-Sep-24 02:00N 36°47' W 013°24'713.3
2017-Sep-24 01:30N 36°49' W 013°32'713.4
2017-Sep-24 01:00N 36°52' W 013°40'713.4
2017-Sep-24 00:30N 36°54' W 013°48'713.2
2017-Sep-23 23:57N 36°56' W 013°56'613.3
2017-Sep-23 23:28N 36°58' W 014°04'65413.1
2017-Sep-21 21:32N 39°31' W 027°33'014.0
2017-Sep-21 21:30N 39°31' W 027°34'712.8
2017-Sep-21 20:57N 39°32' W 027°43'613.0
2017-Sep-21 20:30N 39°33' W 027°50'712.7
2017-Sep-21 19:56N 39°34' W 027°60'512.5
2017-Sep-21 19:30N 39°35' W 028°06'612.6
2017-Sep-21 19:00N 39°36' W 028°15'612.8
2017-Sep-21 18:30N 39°37' W 028°23'612.9
2017-Sep-21 18:00N 39°38' W 028°31'613.0
2017-Sep-21 17:30N 39°39' W 028°39'612.9
2017-Sep-21 17:00N 39°41' W 028°48'612.9
2017-Sep-21 16:30N 39°41' W 028°56'612.8
2017-Sep-21 16:00N 39°42' W 029°04'613.0
2017-Sep-21 15:30N 39°43' W 029°12'612.8
2017-Sep-21 15:01N 39°45' W 029°21'713.1
2017-Sep-21 14:30N 39°46' W 029°29'713.4
2017-Sep-21 14:00N 39°47' W 029°38'713.0
2017-Sep-21 13:27N 39°48' W 029°47'5212.9
2017-Sep-21 09:24N 39°51' W 030°55'712.7
2017-Sep-21 08:50N 39°51' W 031°04'413.0
2017-Sep-21 08:30N 39°51' W 031°10'612.6
2017-Sep-21 08:01N 39°51' W 031°18'612.4
2017-Sep-21 07:30N 39°51' W 031°26'612.4
2017-Sep-21 06:59N 39°51' W 031°34'612.5
2017-Sep-21 06:30N 39°51' W 031°42'612.4
2017-Sep-21 06:00N 39°51' W 031°50'  
Track history (hours):
 
Tides and Currents Weather Stations Pressure Air Temp Water Temp Dewpoint Dewpoint Depression Visibility Wind Speed Wind Dir Waves Ship Positions

Bulk Guatemala

Last reported at 2017-Sep-29 07:56 UTC. Time now 2017-Nov-18 12:31 UTC.
Position N 36°16' E 014°43'.
Warning: this ship's position is 50 days out of date.

Length 199 m; draft 11.8 m.

Type: Cargo ship. MMSI: 356777000.

Date/timePositionNaut miles runAvg speedWind from/ knotsBaromVisibWave heightAir tempDewpointWater temp
2017-Sep-29 07:56N 36°16' E 014°43'613.4
2017-Sep-29 07:30N 36°17' E 014°36'713.6
2017-Sep-29 07:00N 36°19' E 014°28'713.5
2017-Sep-29 06:30N 36°21' E 014°20'612.5
2017-Sep-29 06:01N 36°23' E 014°13'612.5
2017-Sep-29 05:31N 36°25' E 014°05'612.4
2017-Sep-29 05:00N 36°27' E 013°58'612.4
2017-Sep-29 04:30N 36°29' E 013°50'712.3
2017-Sep-29 03:57N 36°31' E 013°42'  
2017-Sep-25 23:57N 36°02' W 005°10'614.6
2017-Sep-25 23:30N 36°01' W 005°18'611.1
2017-Sep-25 23:00N 36°05' W 005°23'3 6.4
2017-Sep-25 22:30N 36°08' W 005°25'0 0.3
2017-Sep-25 21:35N 36°08' W 005°25'0 0.1
2017-Sep-25 21:29N 36°08' W 005°25'0 0.0
2017-Sep-25 20:47N 36°08' W 005°25'0 0.1
2017-Sep-25 20:29N 36°08' W 005°25'0 0.0
2017-Sep-25 19:47N 36°08' W 005°25'0 0.0
2017-Sep-25 19:26N 36°08' W 005°25'0 0.1
2017-Sep-25 18:59N 36°08' W 005°25'0 0.0
2017-Sep-25 18:29N 36°08' W 005°25'0 0.3
2017-Sep-25 17:59N 36°08' W 005°25'0 0.1
2017-Sep-25 16:44N 36°08' W 005°25'0 0.2
2017-Sep-25 16:29N 36°08' W 005°25'0 0.0
2017-Sep-25 16:00N 36°08' W 005°25'0 0.1
2017-Sep-25 15:30N 36°08' W 005°25'0 0.0
2017-Sep-25 13:30N 36°08' W 005°25'0 0.0
2017-Sep-25 12:59N 36°08' W 005°25'8 1.9
2017-Sep-25 08:35N 35°60' W 005°24'110.5
2017-Sep-25 08:30N 35°59' W 005°25'16713.2
2017-Sep-24 19:51N 35°54' W 008°51'512.5
2017-Sep-24 19:28N 35°54' W 008°57'612.5
2017-Sep-24 19:00N 35°54' W 009°04'612.3
2017-Sep-24 18:31N 35°54' W 009°11'612.2
2017-Sep-24 18:00N 35°53' W 009°19'612.2
2017-Sep-24 17:30N 35°53' W 009°27'712.5
2017-Sep-24 16:58N 35°53' W 009°35'612.7
2017-Sep-24 16:30N 35°53' W 009°42'612.5
2017-Sep-24 16:00N 35°53' W 009°50'612.3
2017-Sep-24 15:30N 35°54' W 009°57'612.2
2017-Sep-24 15:01N 35°55' W 010°05'612.5
2017-Sep-24 14:29N 35°57' W 010°12'612.6
2017-Sep-24 14:00N 35°59' W 010°20'712.8
2017-Sep-24 13:29N 36°00' W 010°27'712.8
2017-Sep-24 12:59N 36°02' W 010°35'612.8
2017-Sep-24 12:30N 36°04' W 010°42'612.9
2017-Sep-24 12:00N 36°06' W 010°50'612.9
2017-Sep-24 11:30N 36°08' W 010°57'713.0
2017-Sep-24 11:00N 36°11' W 011°05'613.0
2017-Sep-24 10:30N 36°13' W 011°13'612.9
2017-Sep-24 10:00N 36°15' W 011°20'713.0
2017-Sep-24 09:30N 36°17' W 011°28'713.3
2017-Sep-24 09:01N 36°19' W 011°36'713.1
2017-Sep-24 08:30N 36°21' W 011°43'612.8
2017-Sep-24 08:00N 36°23' W 011°51'612.6
2017-Sep-24 07:30N 36°25' W 011°58'612.7
2017-Sep-24 07:01N 36°27' W 012°06'713.3
2017-Sep-24 06:30N 36°29' W 012°14'713.2
2017-Sep-24 06:01N 36°31' W 012°21'713.1
2017-Sep-24 05:30N 36°33' W 012°29'713.4
2017-Sep-24 05:00N 36°35' W 012°37'713.2
2017-Sep-24 04:30N 36°37' W 012°45'813.3
2017-Sep-24 03:53N 36°40' W 012°55'513.2
2017-Sep-24 03:30N 36°41' W 013°01'713.1
2017-Sep-24 03:00N 36°43' W 013°08'713.0
2017-Sep-24 02:30N 36°45' W 013°16'613.0
2017-Sep-24 02:00N 36°47' W 013°24'713.3
2017-Sep-24 01:30N 36°49' W 013°32'713.4
2017-Sep-24 01:00N 36°52' W 013°40'713.4
2017-Sep-24 00:30N 36°54' W 013°48'713.2
2017-Sep-23 23:57N 36°56' W 013°56'613.3
2017-Sep-23 23:28N 36°58' W 014°04'65413.1
2017-Sep-21 21:32N 39°31' W 027°33'014.0
2017-Sep-21 21:30N 39°31' W 027°34'712.8
2017-Sep-21 20:57N 39°32' W 027°43'613.0
2017-Sep-21 20:30N 39°33' W 027°50'712.7
2017-Sep-21 19:56N 39°34' W 027°60'512.5
2017-Sep-21 19:30N 39°35' W 028°06'612.6
2017-Sep-21 19:00N 39°36' W 028°15'612.8
2017-Sep-21 18:30N 39°37' W 028°23'612.9
2017-Sep-21 18:00N 39°38' W 028°31'613.0
2017-Sep-21 17:30N 39°39' W 028°39'612.9
2017-Sep-21 17:00N 39°41' W 028°48'612.9
2017-Sep-21 16:30N 39°41' W 028°56'612.8
2017-Sep-21 16:00N 39°42' W 029°04'613.0
2017-Sep-21 15:30N 39°43' W 029°12'612.8
2017-Sep-21 15:01N 39°45' W 029°21'713.1
2017-Sep-21 14:30N 39°46' W 029°29'713.4
2017-Sep-21 14:00N 39°47' W 029°38'713.0
2017-Sep-21 13:27N 39°48' W 029°47'5212.9
2017-Sep-21 09:24N 39°51' W 030°55'712.7
2017-Sep-21 08:50N 39°51' W 031°04'413.0
2017-Sep-21 08:30N 39°51' W 031°10'612.6
2017-Sep-21 08:01N 39°51' W 031°18'612.4
2017-Sep-21 07:30N 39°51' W 031°26'612.4
2017-Sep-21 06:59N 39°51' W 031°34'612.5
2017-Sep-21 06:30N 39°51' W 031°42'612.4
2017-Sep-21 06:00N 39°51' W 031°50'  

Dump ship's entire track history